sensor_id;sensor_type;location;lat;lon;timestamp;P1;durP1;ratioP1;P2;durP2;ratioP2
13743;SDS011;6943;52.368;9.966;2023-03-01T00:01:46;11.00;;;7.40;;
13743;SDS011;6943;52.368;9.966;2023-03-01T00:04:12;9.03;;;7.70;;
13743;SDS011;6943;52.368;9.966;2023-03-01T00:06:37;9.87;;;8.00;;
13743;SDS011;6943;52.368;9.966;2023-03-01T00:09:03;10.77;;;7.53;;
13743;SDS011;6943;52.368;9.966;2023-03-01T00:11:30;8.90;;;7.53;;
13743;SDS011;6943;52.368;9.966;2023-03-01T00:13:58;12.17;;;7.83;;
13743;SDS011;6943;52.368;9.966;2023-03-01T00:16:28;9.70;;;7.73;;
13743;SDS011;6943;52.368;9.966;2023-03-01T00:21:28;10.13;;;7.73;;
13743;SDS011;6943;52.368;9.966;2023-03-01T00:23:54;10.13;;;7.30;;
13743;SDS011;6943;52.368;9.966;2023-03-01T00:26:20;11.37;;;7.23;;
13743;SDS011;6943;52.368;9.966;2023-03-01T00:28:47;10.17;;;7.33;;
13743;SDS011;6943;52.368;9.966;2023-03-01T00:31:14;11.23;;;8.03;;
13743;SDS011;6943;52.368;9.966;2023-03-01T00:33:41;10.20;;;7.67;;
13743;SDS011;6943;52.368;9.966;2023-03-01T00:36:07;9.63;;;7.17;;
13743;SDS011;6943;52.368;9.966;2023-03-01T00:38:35;10.30;;;8.20;;
13743;SDS011;6943;52.368;9.966;2023-03-01T00:41:07;11.80;;;7.43;;
13743;SDS011;6943;52.368;9.966;2023-03-01T00:43:37;10.97;;;7.50;;
13743;SDS011;6943;52.368;9.966;2023-03-01T00:46:04;11.67;;;8.60;;
13743;SDS011;6943;52.368;9.966;2023-03-01T00:48:31;9.17;;;7.23;;
13743;SDS011;6943;52.368;9.966;2023-03-01T00:51:03;9.07;;;7.73;;
13743;SDS011;6943;52.368;9.966;2023-03-01T00:53:32;12.50;;;8.50;;
13743;SDS011;6943;52.368;9.966;2023-03-01T00:55:58;13.23;;;8.57;;
13743;SDS011;6943;52.368;9.966;2023-03-01T00:58:24;9.53;;;7.10;;
13743;SDS011;6943;52.368;9.966;2023-03-01T01:00:49;8.93;;;6.97;;
13743;SDS011;6943;52.368;9.966;2023-03-01T01:03:15;11.67;;;7.63;;
13743;SDS011;6943;52.368;9.966;2023-03-01T01:05:40;10.53;;;8.17;;
13743;SDS011;6943;52.368;9.966;2023-03-01T01:08:06;9.20;;;7.17;;
13743;SDS011;6943;52.368;9.966;2023-03-01T01:10:33;10.47;;;7.83;;
13743;SDS011;6943;52.368;9.966;2023-03-01T01:12:59;8.87;;;7.43;;
13743;SDS011;6943;52.368;9.966;2023-03-01T01:15:25;11.80;;;7.33;;
13743;SDS011;6943;52.368;9.966;2023-03-01T01:17:50;8.87;;;7.13;;
13743;SDS011;6943;52.368;9.966;2023-03-01T01:20:16;10.47;;;7.80;;
13743;SDS011;6943;52.368;9.966;2023-03-01T01:22:41;11.13;;;8.27;;
13743;SDS011;6943;52.368;9.966;2023-03-01T01:25:07;9.30;;;7.27;;
13743;SDS011;6943;52.368;9.966;2023-03-01T01:27:33;11.20;;;7.20;;
13743;SDS011;6943;52.368;9.966;2023-03-01T01:29:59;11.43;;;7.13;;
13743;SDS011;6943;52.368;9.966;2023-03-01T01:32:24;8.83;;;7.40;;
13743;SDS011;6943;52.368;9.966;2023-03-01T01:34:49;9.20;;;7.43;;
13743;SDS011;6943;52.368;9.966;2023-03-01T01:37:15;11.23;;;8.20;;
13743;SDS011;6943;52.368;9.966;2023-03-01T01:39:40;9.17;;;7.70;;
13743;SDS011;6943;52.368;9.966;2023-03-01T01:42:08;8.60;;;6.97;;
13743;SDS011;6943;52.368;9.966;2023-03-01T01:44:42;9.40;;;7.50;;
13743;SDS011;6943;52.368;9.966;2023-03-01T01:47:17;8.67;;;7.10;;
13743;SDS011;6943;52.368;9.966;2023-03-01T01:49:46;9.80;;;7.70;;
13743;SDS011;6943;52.368;9.966;2023-03-01T01:52:20;11.43;;;7.17;;
13743;SDS011;6943;52.368;9.966;2023-03-01T01:54:51;8.60;;;7.47;;
13743;SDS011;6943;52.368;9.966;2023-03-01T01:57:37;8.63;;;7.23;;
13743;SDS011;6943;52.368;9.966;2023-03-01T02:00:14;9.83;;;7.73;;
13743;SDS011;6943;52.368;9.966;2023-03-01T02:02:42;11.17;;;7.40;;
13743;SDS011;6943;52.368;9.966;2023-03-01T02:05:11;8.67;;;6.53;;
13743;SDS011;6943;52.368;9.966;2023-03-01T02:07:43;9.33;;;7.40;;
13743;SDS011;6943;52.368;9.966;2023-03-01T02:10:11;11.50;;;7.20;;
13743;SDS011;6943;52.368;9.966;2023-03-01T02:12:36;10.27;;;6.73;;
13743;SDS011;6943;52.368;9.966;2023-03-01T02:15:04;10.70;;;7.87;;
13743;SDS011;6943;52.368;9.966;2023-03-01T02:17:30;8.97;;;7.13;;
13743;SDS011;6943;52.368;9.966;2023-03-01T02:19:59;8.27;;;7.30;;
13743;SDS011;6943;52.368;9.966;2023-03-01T02:22:47;10.20;;;7.00;;
13743;SDS011;6943;52.368;9.966;2023-03-01T02:28:07;10.00;;;7.50;;
13743;SDS011;6943;52.368;9.966;2023-03-01T02:30:44;10.83;;;8.40;;
13743;SDS011;6943;52.368;9.966;2023-03-01T02:33:31;8.77;;;7.07;;
13743;SDS011;6943;52.368;9.966;2023-03-01T02:36:00;11.07;;;7.00;;
13743;SDS011;6943;52.368;9.966;2023-03-01T02:38:29;8.40;;;6.93;;
13743;SDS011;6943;52.368;9.966;2023-03-01T02:40:55;11.13;;;7.30;;
13743;SDS011;6943;52.368;9.966;2023-03-01T02:43:22;10.30;;;7.57;;
13743;SDS011;6943;52.368;9.966;2023-03-01T02:45:56;8.47;;;6.70;;
13743;SDS011;6943;52.368;9.966;2023-03-01T02:48:23;12.53;;;7.50;;
13743;SDS011;6943;52.368;9.966;2023-03-01T02:51:01;8.77;;;7.20;;
13743;SDS011;6943;52.368;9.966;2023-03-01T02:53:41;9.83;;;8.00;;
13743;SDS011;6943;52.368;9.966;2023-03-01T02:56:21;10.00;;;7.93;;
13743;SDS011;6943;52.368;9.966;2023-03-01T02:58:47;9.93;;;6.77;;
13743;SDS011;6943;52.368;9.966;2023-03-01T03:01:16;10.17;;;6.87;;
13743;SDS011;6943;52.368;9.966;2023-03-01T03:03:43;13.07;;;7.67;;
13743;SDS011;6943;52.368;9.966;2023-03-01T03:06:09;9.03;;;6.97;;
13743;SDS011;6943;52.368;9.966;2023-03-01T03:08:34;10.97;;;7.60;;
13743;SDS011;6943;52.368;9.966;2023-03-01T03:11:00;12.47;;;7.30;;
13743;SDS011;6943;52.368;9.966;2023-03-01T03:13:25;8.73;;;7.37;;
13743;SDS011;6943;52.368;9.966;2023-03-01T03:15:53;11.73;;;7.53;;
13743;SDS011;6943;52.368;9.966;2023-03-01T03:18:21;13.73;;;7.63;;
13743;SDS011;6943;52.368;9.966;2023-03-01T03:20:47;11.23;;;7.27;;
13743;SDS011;6943;52.368;9.966;2023-03-01T03:23:17;9.70;;;6.97;;
13743;SDS011;6943;52.368;9.966;2023-03-01T03:25:42;10.80;;;6.67;;
13743;SDS011;6943;52.368;9.966;2023-03-01T03:28:08;9.50;;;7.27;;
13743;SDS011;6943;52.368;9.966;2023-03-01T03:30:37;11.60;;;7.07;;
13743;SDS011;6943;52.368;9.966;2023-03-01T03:33:05;7.43;;;6.70;;
13743;SDS011;6943;52.368;9.966;2023-03-01T03:35:32;10.80;;;7.03;;
13743;SDS011;6943;52.368;9.966;2023-03-01T03:38:04;9.67;;;7.60;;
13743;SDS011;6943;52.368;9.966;2023-03-01T03:40:38;12.23;;;7.30;;
13743;SDS011;6943;52.368;9.966;2023-03-01T03:43:06;12.57;;;7.13;;
13743;SDS011;6943;52.368;9.966;2023-03-01T03:45:32;10.30;;;7.30;;
13743;SDS011;6943;52.368;9.966;2023-03-01T03:48:01;9.17;;;6.90;;
13743;SDS011;6943;52.368;9.966;2023-03-01T03:50:28;9.33;;;7.00;;
13743;SDS011;6943;52.368;9.966;2023-03-01T03:52:54;9.37;;;6.90;;
13743;SDS011;6943;52.368;9.966;2023-03-01T03:55:19;9.50;;;7.23;;
13743;SDS011;6943;52.368;9.966;2023-03-01T03:57:46;9.30;;;7.03;;
13743;SDS011;6943;52.368;9.966;2023-03-01T04:00:17;10.90;;;7.37;;
13743;SDS011;6943;52.368;9.966;2023-03-01T04:02:44;8.63;;;6.60;;
13743;SDS011;6943;52.368;9.966;2023-03-01T04:05:12;10.30;;;7.80;;
13743;SDS011;6943;52.368;9.966;2023-03-01T04:07:39;8.13;;;6.70;;
13743;SDS011;6943;52.368;9.966;2023-03-01T04:10:07;9.00;;;6.60;;
13743;SDS011;6943;52.368;9.966;2023-03-01T04:12:34;9.60;;;6.57;;
13743;SDS011;6943;52.368;9.966;2023-03-01T04:15:03;9.93;;;6.60;;
13743;SDS011;6943;52.368;9.966;2023-03-01T04:17:43;9.67;;;6.23;;
13743;SDS011;6943;52.368;9.966;2023-03-01T04:20:11;11.90;;;7.27;;
13743;SDS011;6943;52.368;9.966;2023-03-01T04:22:49;8.73;;;6.90;;
13743;SDS011;6943;52.368;9.966;2023-03-01T04:25:23;10.90;;;7.13;;
13743;SDS011;6943;52.368;9.966;2023-03-01T04:27:49;9.10;;;6.97;;
13743;SDS011;6943;52.368;9.966;2023-03-01T04:30:15;10.57;;;6.93;;
13743;SDS011;6943;52.368;9.966;2023-03-01T04:32:40;9.50;;;6.47;;
13743;SDS011;6943;52.368;9.966;2023-03-01T04:35:06;10.30;;;6.90;;
13743;SDS011;6943;52.368;9.966;2023-03-01T04:37:32;8.83;;;6.77;;
13743;SDS011;6943;52.368;9.966;2023-03-01T04:39:59;11.60;;;6.70;;
13743;SDS011;6943;52.368;9.966;2023-03-01T04:42:25;8.83;;;6.70;;
13743;SDS011;6943;52.368;9.966;2023-03-01T04:44:51;9.70;;;6.70;;
13743;SDS011;6943;52.368;9.966;2023-03-01T04:47:17;12.37;;;7.73;;
13743;SDS011;6943;52.368;9.966;2023-03-01T04:49:42;10.17;;;6.90;;
13743;SDS011;6943;52.368;9.966;2023-03-01T04:52:08;9.10;;;7.03;;
13743;SDS011;6943;52.368;9.966;2023-03-01T04:54:34;10.37;;;6.63;;
13743;SDS011;6943;52.368;9.966;2023-03-01T04:57:00;9.40;;;6.83;;
13743;SDS011;6943;52.368;9.966;2023-03-01T04:59:27;9.93;;;6.90;;
13743;SDS011;6943;52.368;9.966;2023-03-01T05:01:53;10.13;;;7.30;;
13743;SDS011;6943;52.368;9.966;2023-03-01T05:04:23;9.80;;;6.53;;
13743;SDS011;6943;52.368;9.966;2023-03-01T05:06:49;9.13;;;6.90;;
13743;SDS011;6943;52.368;9.966;2023-03-01T05:09:14;10.67;;;7.57;;
13743;SDS011;6943;52.368;9.966;2023-03-01T05:11:40;7.77;;;6.70;;
13743;SDS011;6943;52.368;9.966;2023-03-01T05:14:06;8.50;;;7.23;;
13743;SDS011;6943;52.368;9.966;2023-03-01T05:16:33;9.07;;;7.30;;
13743;SDS011;6943;52.368;9.966;2023-03-01T05:18:59;14.13;;;8.37;;
13743;SDS011;6943;52.368;9.966;2023-03-01T05:21:25;13.10;;;9.00;;
13743;SDS011;6943;52.368;9.966;2023-03-01T05:23:51;10.70;;;7.70;;
13743;SDS011;6943;52.368;9.966;2023-03-01T05:26:17;9.07;;;7.17;;
13743;SDS011;6943;52.368;9.966;2023-03-01T05:28:44;10.07;;;7.50;;
13743;SDS011;6943;52.368;9.966;2023-03-01T05:31:09;11.67;;;7.37;;
13743;SDS011;6943;52.368;9.966;2023-03-01T05:33:38;11.33;;;8.33;;
13743;SDS011;6943;52.368;9.966;2023-03-01T05:36:05;14.00;;;10.00;;
13743;SDS011;6943;52.368;9.966;2023-03-01T05:38:33;9.93;;;7.50;;
13743;SDS011;6943;52.368;9.966;2023-03-01T05:40:59;10.33;;;7.53;;
13743;SDS011;6943;52.368;9.966;2023-03-01T05:43:24;12.63;;;7.43;;
13743;SDS011;6943;52.368;9.966;2023-03-01T05:45:50;11.30;;;7.23;;
13743;SDS011;6943;52.368;9.966;2023-03-01T05:48:16;11.60;;;8.23;;
13743;SDS011;6943;52.368;9.966;2023-03-01T05:50:44;10.53;;;8.07;;
13743;SDS011;6943;52.368;9.966;2023-03-01T05:53:11;11.27;;;8.50;;
13743;SDS011;6943;52.368;9.966;2023-03-01T05:55:39;11.70;;;8.90;;
13743;SDS011;6943;52.368;9.966;2023-03-01T05:58:06;9.30;;;7.33;;
13743;SDS011;6943;52.368;9.966;2023-03-01T06:00:34;12.20;;;8.07;;
13743;SDS011;6943;52.368;9.966;2023-03-01T06:02:59;11.77;;;7.83;;
13743;SDS011;6943;52.368;9.966;2023-03-01T06:05:25;16.33;;;11.03;;
13743;SDS011;6943;52.368;9.966;2023-03-01T06:07:52;18.77;;;13.40;;
13743;SDS011;6943;52.368;9.966;2023-03-01T06:10:18;13.23;;;9.77;;
13743;SDS011;6943;52.368;9.966;2023-03-01T06:12:45;13.60;;;9.20;;
13743;SDS011;6943;52.368;9.966;2023-03-01T06:15:12;9.83;;;8.07;;
13743;SDS011;6943;52.368;9.966;2023-03-01T06:17:39;11.43;;;8.57;;
13743;SDS011;6943;52.368;9.966;2023-03-01T06:20:10;13.00;;;8.87;;
13743;SDS011;6943;52.368;9.966;2023-03-01T06:22:43;12.93;;;8.30;;
13743;SDS011;6943;52.368;9.966;2023-03-01T06:25:09;10.97;;;8.17;;
13743;SDS011;6943;52.368;9.966;2023-03-01T06:27:37;10.87;;;8.27;;
13743;SDS011;6943;52.368;9.966;2023-03-01T06:30:03;14.17;;;8.70;;
13743;SDS011;6943;52.368;9.966;2023-03-01T06:32:29;12.63;;;9.07;;
13743;SDS011;6943;52.368;9.966;2023-03-01T06:34:55;12.53;;;8.40;;
13743;SDS011;6943;52.368;9.966;2023-03-01T06:37:20;11.40;;;8.63;;
13743;SDS011;6943;52.368;9.966;2023-03-01T06:39:46;11.67;;;8.23;;
13743;SDS011;6943;52.368;9.966;2023-03-01T06:42:11;11.37;;;9.13;;
13743;SDS011;6943;52.368;9.966;2023-03-01T06:44:37;12.63;;;8.80;;
13743;SDS011;6943;52.368;9.966;2023-03-01T06:47:03;10.33;;;8.80;;
13743;SDS011;6943;52.368;9.966;2023-03-01T06:49:29;11.23;;;8.63;;
13743;SDS011;6943;52.368;9.966;2023-03-01T06:51:55;13.57;;;8.83;;
13743;SDS011;6943;52.368;9.966;2023-03-01T06:54:21;10.63;;;7.70;;
13743;SDS011;6943;52.368;9.966;2023-03-01T06:56:49;11.53;;;8.47;;
13743;SDS011;6943;52.368;9.966;2023-03-01T06:59:15;11.93;;;8.93;;
13743;SDS011;6943;52.368;9.966;2023-03-01T07:01:41;11.37;;;9.10;;
13743;SDS011;6943;52.368;9.966;2023-03-01T07:04:08;11.77;;;8.03;;
13743;SDS011;6943;52.368;9.966;2023-03-01T07:06:34;14.00;;;9.20;;
13743;SDS011;6943;52.368;9.966;2023-03-01T07:09:00;14.13;;;8.90;;
13743;SDS011;6943;52.368;9.966;2023-03-01T07:11:26;13.27;;;9.37;;
13743;SDS011;6943;52.368;9.966;2023-03-01T07:13:51;11.57;;;9.80;;
13743;SDS011;6943;52.368;9.966;2023-03-01T07:16:17;14.13;;;9.40;;
13743;SDS011;6943;52.368;9.966;2023-03-01T07:18:42;16.93;;;9.73;;
13743;SDS011;6943;52.368;9.966;2023-03-01T07:21:09;12.87;;;9.07;;
13743;SDS011;6943;52.368;9.966;2023-03-01T07:23:37;12.67;;;9.30;;
13743;SDS011;6943;52.368;9.966;2023-03-01T07:26:03;13.93;;;9.70;;
13743;SDS011;6943;52.368;9.966;2023-03-01T07:28:28;14.27;;;9.30;;
13743;SDS011;6943;52.368;9.966;2023-03-01T07:30:55;15.00;;;9.90;;
13743;SDS011;6943;52.368;9.966;2023-03-01T07:33:26;14.53;;;10.07;;
13743;SDS011;6943;52.368;9.966;2023-03-01T07:35:55;14.10;;;10.33;;
13743;SDS011;6943;52.368;9.966;2023-03-01T07:38:25;15.13;;;10.30;;
13743;SDS011;6943;52.368;9.966;2023-03-01T07:40:51;17.90;;;11.10;;
13743;SDS011;6943;52.368;9.966;2023-03-01T07:43:17;18.43;;;10.57;;
13743;SDS011;6943;52.368;9.966;2023-03-01T07:45:43;18.37;;;9.83;;
13743;SDS011;6943;52.368;9.966;2023-03-01T07:48:09;16.03;;;10.83;;
13743;SDS011;6943;52.368;9.966;2023-03-01T07:50:35;13.23;;;9.63;;
13743;SDS011;6943;52.368;9.966;2023-03-01T07:53:00;16.33;;;10.67;;
13743;SDS011;6943;52.368;9.966;2023-03-01T07:55:27;23.07;;;11.50;;
13743;SDS011;6943;52.368;9.966;2023-03-01T07:57:53;25.47;;;11.07;;
13743;SDS011;6943;52.368;9.966;2023-03-01T08:00:18;19.13;;;10.23;;
13743;SDS011;6943;52.368;9.966;2023-03-01T08:02:44;18.20;;;11.77;;
13743;SDS011;6943;52.368;9.966;2023-03-01T08:05:10;15.20;;;9.63;;
13743;SDS011;6943;52.368;9.966;2023-03-01T08:07:36;10.07;;;9.07;;
13743;SDS011;6943;52.368;9.966;2023-03-01T08:10:01;11.03;;;8.13;;
13743;SDS011;6943;52.368;9.966;2023-03-01T08:12:27;14.00;;;8.93;;
13743;SDS011;6943;52.368;9.966;2023-03-01T08:14:53;16.63;;;9.33;;
13743;SDS011;6943;52.368;9.966;2023-03-01T08:17:19;13.57;;;9.93;;
13743;SDS011;6943;52.368;9.966;2023-03-01T08:19:44;14.23;;;9.70;;
13743;SDS011;6943;52.368;9.966;2023-03-01T08:22:10;18.23;;;9.70;;
13743;SDS011;6943;52.368;9.966;2023-03-01T08:24:36;18.13;;;11.20;;
13743;SDS011;6943;52.368;9.966;2023-03-01T08:27:01;17.10;;;11.77;;
13743;SDS011;6943;52.368;9.966;2023-03-01T08:29:28;20.50;;;11.70;;
13743;SDS011;6943;52.368;9.966;2023-03-01T08:31:55;22.17;;;11.87;;
13743;SDS011;6943;52.368;9.966;2023-03-01T08:34:21;25.43;;;13.57;;
13743;SDS011;6943;52.368;9.966;2023-03-01T08:36:47;24.47;;;14.00;;
13743;SDS011;6943;52.368;9.966;2023-03-01T08:39:14;24.63;;;13.23;;
13743;SDS011;6943;52.368;9.966;2023-03-01T08:41:40;27.00;;;13.30;;
13743;SDS011;6943;52.368;9.966;2023-03-01T08:44:06;26.33;;;14.17;;
13743;SDS011;6943;52.368;9.966;2023-03-01T08:46:36;21.93;;;11.23;;
13743;SDS011;6943;52.368;9.966;2023-03-01T08:49:04;21.10;;;11.30;;
13743;SDS011;6943;52.368;9.966;2023-03-01T08:51:32;18.60;;;9.60;;
13743;SDS011;6943;52.368;9.966;2023-03-01T08:54:01;15.97;;;9.77;;
13743;SDS011;6943;52.368;9.966;2023-03-01T08:56:30;17.47;;;10.20;;
13743;SDS011;6943;52.368;9.966;2023-03-01T08:58:56;17.67;;;10.73;;
13743;SDS011;6943;52.368;9.966;2023-03-01T09:01:21;16.20;;;9.30;;
13743;SDS011;6943;52.368;9.966;2023-03-01T09:03:47;14.07;;;8.33;;
13743;SDS011;6943;52.368;9.966;2023-03-01T09:06:12;13.03;;;6.83;;
13743;SDS011;6943;52.368;9.966;2023-03-01T09:08:40;9.57;;;6.53;;
13743;SDS011;6943;52.368;9.966;2023-03-01T09:11:09;9.33;;;5.50;;
13743;SDS011;6943;52.368;9.966;2023-03-01T09:13:36;9.87;;;5.80;;
13743;SDS011;6943;52.368;9.966;2023-03-01T09:16:03;9.63;;;6.03;;
13743;SDS011;6943;52.368;9.966;2023-03-01T09:18:29;8.43;;;6.00;;
13743;SDS011;6943;52.368;9.966;2023-03-01T09:21:06;8.27;;;5.37;;
13743;SDS011;6943;52.368;9.966;2023-03-01T09:23:36;6.53;;;5.47;;
13743;SDS011;6943;52.368;9.966;2023-03-01T09:26:04;9.23;;;5.77;;
13743;SDS011;6943;52.368;9.966;2023-03-01T09:28:41;6.90;;;5.13;;
13743;SDS011;6943;52.368;9.966;2023-03-01T09:31:07;6.80;;;5.57;;
13743;SDS011;6943;52.368;9.966;2023-03-01T09:33:33;5.47;;;4.80;;
13743;SDS011;6943;52.368;9.966;2023-03-01T09:36:05;6.23;;;4.63;;
13743;SDS011;6943;52.368;9.966;2023-03-01T09:38:32;7.73;;;4.83;;
13743;SDS011;6943;52.368;9.966;2023-03-01T09:40:59;5.70;;;4.60;;
13743;SDS011;6943;52.368;9.966;2023-03-01T09:43:31;6.00;;;4.53;;
13743;SDS011;6943;52.368;9.966;2023-03-01T09:46:07;6.20;;;5.27;;
13743;SDS011;6943;52.368;9.966;2023-03-01T09:48:57;7.00;;;4.67;;
13743;SDS011;6943;52.368;9.966;2023-03-01T09:51:27;7.87;;;5.10;;
13743;SDS011;6943;52.368;9.966;2023-03-01T09:53:56;7.20;;;4.43;;
13743;SDS011;6943;52.368;9.966;2023-03-01T09:59:19;5.80;;;4.50;;
13743;SDS011;6943;52.368;9.966;2023-03-01T10:04:45;7.20;;;5.20;;
13743;SDS011;6943;52.368;9.966;2023-03-01T10:07:16;7.70;;;4.50;;
13743;SDS011;6943;52.368;9.966;2023-03-01T10:09:50;7.77;;;4.57;;
13743;SDS011;6943;52.368;9.966;2023-03-01T10:12:19;4.87;;;4.13;;
13743;SDS011;6943;52.368;9.966;2023-03-01T10:14:54;6.40;;;3.97;;
13743;SDS011;6943;52.368;9.966;2023-03-01T10:17:32;6.50;;;4.77;;
13743;SDS011;6943;52.368;9.966;2023-03-01T10:22:41;8.00;;;4.33;;
13743;SDS011;6943;52.368;9.966;2023-03-01T10:25:08;6.73;;;4.50;;
13743;SDS011;6943;52.368;9.966;2023-03-01T10:27:55;4.80;;;3.80;;
13743;SDS011;6943;52.368;9.966;2023-03-01T10:30:34;7.07;;;4.77;;
13743;SDS011;6943;52.368;9.966;2023-03-01T10:33:04;7.80;;;4.93;;
13743;SDS011;6943;52.368;9.966;2023-03-01T10:35:38;7.90;;;4.40;;
13743;SDS011;6943;52.368;9.966;2023-03-01T10:38:07;5.53;;;4.17;;
13743;SDS011;6943;52.368;9.966;2023-03-01T10:40:50;6.60;;;4.17;;
13743;SDS011;6943;52.368;9.966;2023-03-01T10:43:16;8.53;;;4.73;;
13743;SDS011;6943;52.368;9.966;2023-03-01T10:45:42;5.73;;;4.10;;
13743;SDS011;6943;52.368;9.966;2023-03-01T10:50:47;6.43;;;4.13;;
13743;SDS011;6943;52.368;9.966;2023-03-01T10:56:10;6.77;;;3.57;;
13743;SDS011;6943;52.368;9.966;2023-03-01T10:58:39;6.00;;;4.03;;
13743;SDS011;6943;52.368;9.966;2023-03-01T11:01:24;8.20;;;3.60;;
13743;SDS011;6943;52.368;9.966;2023-03-01T11:06:32;5.67;;;3.77;;
13743;SDS011;6943;52.368;9.966;2023-03-01T11:09:12;4.57;;;3.70;;
13743;SDS011;6943;52.368;9.966;2023-03-01T11:11:38;4.93;;;4.23;;
13743;SDS011;6943;52.368;9.966;2023-03-01T11:14:12;5.77;;;4.10;;
13743;SDS011;6943;52.368;9.966;2023-03-01T11:16:42;6.47;;;4.00;;
13743;SDS011;6943;52.368;9.966;2023-03-01T11:21:39;7.23;;;3.80;;
13743;SDS011;6943;52.368;9.966;2023-03-01T11:24:26;6.63;;;3.90;;
13743;SDS011;6943;52.368;9.966;2023-03-01T11:27:16;7.07;;;3.83;;
13743;SDS011;6943;52.368;9.966;2023-03-01T11:29:45;5.67;;;3.67;;
13743;SDS011;6943;52.368;9.966;2023-03-01T11:32:16;5.23;;;3.70;;
13743;SDS011;6943;52.368;9.966;2023-03-01T11:34:43;3.40;;;2.90;;
13743;SDS011;6943;52.368;9.966;2023-03-01T11:40:05;6.43;;;3.77;;
13743;SDS011;6943;52.368;9.966;2023-03-01T11:45:19;5.47;;;3.77;;
13743;SDS011;6943;52.368;9.966;2023-03-01T11:48:14;5.03;;;3.50;;
13743;SDS011;6943;52.368;9.966;2023-03-01T11:50:48;6.63;;;3.73;;
13743;SDS011;6943;52.368;9.966;2023-03-01T11:53:24;5.53;;;3.80;;
13743;SDS011;6943;52.368;9.966;2023-03-01T12:04:24;5.63;;;3.73;;
13743;SDS011;6943;52.368;9.966;2023-03-01T12:10:19;5.20;;;3.47;;
13743;SDS011;6943;52.368;9.966;2023-03-01T12:18:52;5.70;;;3.70;;
13743;SDS011;6943;52.368;9.966;2023-03-01T12:21:44;9.03;;;3.43;;
13743;SDS011;6943;52.368;9.966;2023-03-01T12:27:49;7.73;;;3.70;;
13743;SDS011;6943;52.368;9.966;2023-03-01T12:30:14;4.60;;;3.40;;
13743;SDS011;6943;52.368;9.966;2023-03-01T12:38:42;3.03;;;2.73;;
13743;SDS011;6943;52.368;9.966;2023-03-01T12:44:48;4.17;;;2.90;;
13743;SDS011;6943;52.368;9.966;2023-03-01T12:47:15;5.40;;;2.90;;
13743;SDS011;6943;52.368;9.966;2023-03-01T12:49:52;5.77;;;3.13;;
13743;SDS011;6943;52.368;9.966;2023-03-01T12:52:32;5.43;;;3.50;;
13743;SDS011;6943;52.368;9.966;2023-03-01T12:55:06;3.30;;;2.83;;
13743;SDS011;6943;52.368;9.966;2023-03-01T12:57:47;3.10;;;2.67;;
13743;SDS011;6943;52.368;9.966;2023-03-01T13:00:28;3.77;;;2.80;;
13743;SDS011;6943;52.368;9.966;2023-03-01T13:03:05;6.70;;;3.40;;
13743;SDS011;6943;52.368;9.966;2023-03-01T13:08:31;4.10;;;3.17;;
13743;SDS011;6943;52.368;9.966;2023-03-01T13:11:04;4.13;;;2.50;;
13743;SDS011;6943;52.368;9.966;2023-03-01T13:13:32;4.93;;;3.30;;
13743;SDS011;6943;52.368;9.966;2023-03-01T13:15:57;4.97;;;2.70;;
13743;SDS011;6943;52.368;9.966;2023-03-01T13:18:47;4.33;;;2.40;;
13743;SDS011;6943;52.368;9.966;2023-03-01T13:21:13;3.90;;;2.60;;
13743;SDS011;6943;52.368;9.966;2023-03-01T13:23:56;2.93;;;2.60;;
13743;SDS011;6943;52.368;9.966;2023-03-01T13:26:22;3.53;;;2.30;;
13743;SDS011;6943;52.368;9.966;2023-03-01T13:28:51;3.90;;;3.03;;
13743;SDS011;6943;52.368;9.966;2023-03-01T13:33:57;3.43;;;2.77;;
13743;SDS011;6943;52.368;9.966;2023-03-01T13:44:12;4.07;;;2.80;;
13743;SDS011;6943;52.368;9.966;2023-03-01T13:46:42;4.23;;;2.93;;
13743;SDS011;6943;52.368;9.966;2023-03-01T13:49:11;4.23;;;3.17;;
13743;SDS011;6943;52.368;9.966;2023-03-01T13:51:46;6.60;;;3.10;;
13743;SDS011;6943;52.368;9.966;2023-03-01T13:54:12;5.67;;;2.73;;
13743;SDS011;6943;52.368;9.966;2023-03-01T13:56:40;5.77;;;3.40;;
13743;SDS011;6943;52.368;9.966;2023-03-01T14:01:44;3.63;;;2.67;;
13743;SDS011;6943;52.368;9.966;2023-03-01T14:04:22;3.87;;;2.70;;
13743;SDS011;6943;52.368;9.966;2023-03-01T14:07:09;5.07;;;2.57;;
13743;SDS011;6943;52.368;9.966;2023-03-01T14:09:37;4.40;;;2.97;;
13743;SDS011;6943;52.368;9.966;2023-03-01T14:12:11;3.80;;;3.00;;
13743;SDS011;6943;52.368;9.966;2023-03-01T14:15:06;4.60;;;2.70;;
13743;SDS011;6943;52.368;9.966;2023-03-01T14:17:44;3.63;;;2.60;;
13743;SDS011;6943;52.368;9.966;2023-03-01T14:20:18;3.50;;;2.77;;
13743;SDS011;6943;52.368;9.966;2023-03-01T14:22:49;9.70;;;2.77;;
13743;SDS011;6943;52.368;9.966;2023-03-01T14:25:31;5.93;;;2.97;;
13743;SDS011;6943;52.368;9.966;2023-03-01T14:28:13;6.67;;;2.97;;
13743;SDS011;6943;52.368;9.966;2023-03-01T14:30:45;4.47;;;2.33;;
13743;SDS011;6943;52.368;9.966;2023-03-01T14:35:55;3.57;;;2.43;;
13743;SDS011;6943;52.368;9.966;2023-03-01T14:38:28;2.90;;;2.50;;
13743;SDS011;6943;52.368;9.966;2023-03-01T14:41:00;4.33;;;2.63;;
13743;SDS011;6943;52.368;9.966;2023-03-01T14:43:29;3.57;;;2.67;;
13743;SDS011;6943;52.368;9.966;2023-03-01T14:45:55;6.47;;;2.50;;
13743;SDS011;6943;52.368;9.966;2023-03-01T14:48:21;6.17;;;2.50;;
13743;SDS011;6943;52.368;9.966;2023-03-01T14:50:46;6.23;;;2.30;;
13743;SDS011;6943;52.368;9.966;2023-03-01T14:53:26;3.93;;;2.67;;
13743;SDS011;6943;52.368;9.966;2023-03-01T14:55:55;5.67;;;2.40;;
13743;SDS011;6943;52.368;9.966;2023-03-01T14:58:25;3.93;;;2.23;;
13743;SDS011;6943;52.368;9.966;2023-03-01T15:00:55;4.53;;;2.53;;
13743;SDS011;6943;52.368;9.966;2023-03-01T15:03:27;4.20;;;2.40;;
13743;SDS011;6943;52.368;9.966;2023-03-01T15:06:05;2.50;;;2.30;;
13743;SDS011;6943;52.368;9.966;2023-03-01T15:08:32;3.73;;;2.50;;
13743;SDS011;6943;52.368;9.966;2023-03-01T15:11:03;2.43;;;2.23;;
13743;SDS011;6943;52.368;9.966;2023-03-01T15:13:42;3.97;;;2.40;;
13743;SDS011;6943;52.368;9.966;2023-03-01T15:16:11;3.77;;;2.17;;
13743;SDS011;6943;52.368;9.966;2023-03-01T15:18:43;3.83;;;2.20;;
13743;SDS011;6943;52.368;9.966;2023-03-01T15:21:24;3.60;;;2.57;;
13743;SDS011;6943;52.368;9.966;2023-03-01T15:23:55;4.47;;;2.13;;
13743;SDS011;6943;52.368;9.966;2023-03-01T15:26:27;3.47;;;2.30;;
13743;SDS011;6943;52.368;9.966;2023-03-01T15:28:55;2.97;;;2.13;;
13743;SDS011;6943;52.368;9.966;2023-03-01T15:31:36;2.87;;;2.17;;
13743;SDS011;6943;52.368;9.966;2023-03-01T15:34:48;2.93;;;2.17;;
13743;SDS011;6943;52.368;9.966;2023-03-01T15:36:49;2.10;;;1.80;;
13743;SDS011;6943;52.368;9.966;2023-03-01T15:42:05;3.37;;;2.00;;
13743;SDS011;6943;52.368;9.966;2023-03-01T15:44:34;2.60;;;2.00;;
13743;SDS011;6943;52.368;9.966;2023-03-01T15:47:20;2.80;;;2.07;;
13743;SDS011;6943;52.368;9.966;2023-03-01T15:49:50;2.73;;;1.90;;
13743;SDS011;6943;52.368;9.966;2023-03-01T15:52:21;2.73;;;2.10;;
13743;SDS011;6943;52.368;9.966;2023-03-01T15:54:54;2.90;;;2.53;;
13743;SDS011;6943;52.368;9.966;2023-03-01T15:57:24;3.93;;;2.20;;
13743;SDS011;6943;52.368;9.966;2023-03-01T15:59:49;3.47;;;2.20;;
13743;SDS011;6943;52.368;9.966;2023-03-01T16:02:15;3.27;;;2.10;;
13743;SDS011;6943;52.368;9.966;2023-03-01T16:04:40;2.10;;;1.90;;
13743;SDS011;6943;52.368;9.966;2023-03-01T16:07:06;3.27;;;2.10;;
13743;SDS011;6943;52.368;9.966;2023-03-01T16:09:31;3.63;;;1.83;;
13743;SDS011;6943;52.368;9.966;2023-03-01T16:11:57;3.47;;;2.30;;
13743;SDS011;6943;52.368;9.966;2023-03-01T16:14:23;3.23;;;2.57;;
13743;SDS011;6943;52.368;9.966;2023-03-01T16:16:48;2.53;;;2.07;;
13743;SDS011;6943;52.368;9.966;2023-03-01T16:19:14;3.27;;;2.43;;
13743;SDS011;6943;52.368;9.966;2023-03-01T16:21:41;3.00;;;1.97;;
13743;SDS011;6943;52.368;9.966;2023-03-01T16:24:08;4.77;;;2.53;;
13743;SDS011;6943;52.368;9.966;2023-03-01T16:26:34;3.47;;;2.43;;
13743;SDS011;6943;52.368;9.966;2023-03-01T16:29:02;2.83;;;2.30;;
13743;SDS011;6943;52.368;9.966;2023-03-01T16:31:27;4.03;;;2.73;;